sensor_id;sensor_type;location;lat;lon;timestamp;temperature;humidity
12130;DHT22;6128;59.340;18.040;2023-11-22T00:01:21;-1.30;99.90
12130;DHT22;6128;59.340;18.040;2023-11-22T00:03:48;-1.30;99.90
12130;DHT22;6128;59.340;18.040;2023-11-22T00:06:15;-1.40;99.90
12130;DHT22;6128;59.340;18.040;2023-11-22T00:08:45;-1.40;99.90
12130;DHT22;6128;59.340;18.040;2023-11-22T00:11:12;-1.40;99.90
12130;DHT22;6128;59.340;18.040;2023-11-22T00:13:40;-1.50;99.90
12130;DHT22;6128;59.340;18.040;2023-11-22T00:16:07;-1.50;99.90
12130;DHT22;6128;59.340;18.040;2023-11-22T00:18:36;-1.50;99.90
12130;DHT22;6128;59.340;18.040;2023-11-22T00:21:04;-1.50;99.90
12130;DHT22;6128;59.340;18.040;2023-11-22T00:23:31;-1.60;99.90
12130;DHT22;6128;59.340;18.040;2023-11-22T00:25:58;-1.60;99.90
12130;DHT22;6128;59.340;18.040;2023-11-22T00:28:25;-1.60;99.90
12130;DHT22;6128;59.340;18.040;2023-11-22T00:30:52;-1.60;99.90
12130;DHT22;6128;59.340;18.040;2023-11-22T00:33:20;-1.70;99.90
12130;DHT22;6128;59.340;18.040;2023-11-22T00:35:48;-1.70;99.90
12130;DHT22;6128;59.340;18.040;2023-11-22T00:38:15;-1.70;99.90
12130;DHT22;6128;59.340;18.040;2023-11-22T00:40:43;-1.60;99.90
12130;DHT22;6128;59.340;18.040;2023-11-22T00:43:10;-1.60;99.90
12130;DHT22;6128;59.340;18.040;2023-11-22T00:45:37;-1.60;99.90
12130;DHT22;6128;59.340;18.040;2023-11-22T00:48:04;-1.60;99.90
12130;DHT22;6128;59.340;18.040;2023-11-22T00:50:31;-1.50;99.90
12130;DHT22;6128;59.340;18.040;2023-11-22T00:52:59;-1.60;99.90
12130;DHT22;6128;59.340;18.040;2023-11-22T00:55:26;-1.60;99.90
12130;DHT22;6128;59.340;18.040;2023-11-22T00:57:57;-1.70;99.90
12130;DHT22;6128;59.340;18.040;2023-11-22T01:00:29;-1.70;99.90
12130;DHT22;6128;59.340;18.040;2023-11-22T01:02:56;-1.70;99.90
12130;DHT22;6128;59.340;18.040;2023-11-22T01:05:23;-1.70;99.90
12130;DHT22;6128;59.340;18.040;2023-11-22T01:07:50;-1.70;99.90
12130;DHT22;6128;59.340;18.040;2023-11-22T01:10:19;-1.80;99.90
12130;DHT22;6128;59.340;18.040;2023-11-22T01:12:46;-1.80;99.90
12130;DHT22;6128;59.340;18.040;2023-11-22T01:15:13;-1.80;99.90
12130;DHT22;6128;59.340;18.040;2023-11-22T01:17:40;-1.80;99.90
12130;DHT22;6128;59.340;18.040;2023-11-22T01:20:08;-1.90;99.90
12130;DHT22;6128;59.340;18.040;2023-11-22T01:22:37;-1.80;99.90
12130;DHT22;6128;59.340;18.040;2023-11-22T01:25:05;-1.90;99.90
12130;DHT22;6128;59.340;18.040;2023-11-22T01:27:34;-1.90;99.90
12130;DHT22;6128;59.340;18.040;2023-11-22T01:30:01;-1.90;99.90
12130;DHT22;6128;59.340;18.040;2023-11-22T01:32:29;-1.90;99.90
12130;DHT22;6128;59.340;18.040;2023-11-22T01:34:56;-1.90;99.90
12130;DHT22;6128;59.340;18.040;2023-11-22T01:37:24;-1.90;99.90
12130;DHT22;6128;59.340;18.040;2023-11-22T01:39:52;-2.00;99.90
12130;DHT22;6128;59.340;18.040;2023-11-22T01:42:20;-2.00;99.90
12130;DHT22;6128;59.340;18.040;2023-11-22T01:44:50;-2.00;99.90
12130;DHT22;6128;59.340;18.040;2023-11-22T01:47:18;-2.00;99.90
12130;DHT22;6128;59.340;18.040;2023-11-22T01:49:46;-2.00;99.90
12130;DHT22;6128;59.340;18.040;2023-11-22T01:52:13;-2.00;99.90
12130;DHT22;6128;59.340;18.040;2023-11-22T01:54:40;-2.00;99.90
12130;DHT22;6128;59.340;18.040;2023-11-22T01:57:08;-2.00;99.90
12130;DHT22;6128;59.340;18.040;2023-11-22T01:59:36;-2.00;99.90
12130;DHT22;6128;59.340;18.040;2023-11-22T02:02:06;-2.00;99.90
12130;DHT22;6128;59.340;18.040;2023-11-22T02:04:33;-2.00;99.90
12130;DHT22;6128;59.340;18.040;2023-11-22T02:07:00;-2.00;99.90
12130;DHT22;6128;59.340;18.040;2023-11-22T02:09:27;-2.00;99.90
12130;DHT22;6128;59.340;18.040;2023-11-22T02:11:54;-2.00;99.90
12130;DHT22;6128;59.340;18.040;2023-11-22T02:14:21;-2.10;99.90
12130;DHT22;6128;59.340;18.040;2023-11-22T02:16:48;-2.10;99.90
12130;DHT22;6128;59.340;18.040;2023-11-22T02:19:17;-2.20;99.90
12130;DHT22;6128;59.340;18.040;2023-11-22T02:21:45;-2.20;99.90
12130;DHT22;6128;59.340;18.040;2023-11-22T02:24:14;-2.20;99.90
12130;DHT22;6128;59.340;18.040;2023-11-22T02:26:44;-2.20;99.90
12130;DHT22;6128;59.340;18.040;2023-11-22T02:29:11;-2.30;99.90
12130;DHT22;6128;59.340;18.040;2023-11-22T02:31:41;-2.30;99.90
12130;DHT22;6128;59.340;18.040;2023-11-22T02:34:08;-2.30;99.90
12130;DHT22;6128;59.340;18.040;2023-11-22T02:36:35;-2.30;99.90
12130;DHT22;6128;59.340;18.040;2023-11-22T02:39:03;-2.30;99.90
12130;DHT22;6128;59.340;18.040;2023-11-22T02:41:31;-2.30;99.90
12130;DHT22;6128;59.340;18.040;2023-11-22T02:43:59;-2.30;99.90
12130;DHT22;6128;59.340;18.040;2023-11-22T02:46:26;-2.30;99.90
12130;DHT22;6128;59.340;18.040;2023-11-22T02:48:53;-2.30;99.90
12130;DHT22;6128;59.340;18.040;2023-11-22T02:51:20;-2.30;99.90
12130;DHT22;6128;59.340;18.040;2023-11-22T02:53:48;-2.30;99.90
12130;DHT22;6128;59.340;18.040;2023-11-22T02:56:15;-2.30;99.90
12130;DHT22;6128;59.340;18.040;2023-11-22T02:58:44;-2.30;99.90
12130;DHT22;6128;59.340;18.040;2023-11-22T03:01:11;-2.30;99.90
12130;DHT22;6128;59.340;18.040;2023-11-22T03:03:38;-2.30;99.90
12130;DHT22;6128;59.340;18.040;2023-11-22T03:06:06;-2.30;99.90
12130;DHT22;6128;59.340;18.040;2023-11-22T03:08:33;-2.30;99.90
12130;DHT22;6128;59.340;18.040;2023-11-22T03:11:00;-2.30;99.90
12130;DHT22;6128;59.340;18.040;2023-11-22T03:13:28;-2.30;99.90
12130;DHT22;6128;59.340;18.040;2023-11-22T03:15:56;-2.30;99.90
12130;DHT22;6128;59.340;18.040;2023-11-22T03:18:23;-2.30;99.90
12130;DHT22;6128;59.340;18.040;2023-11-22T03:20:51;-2.30;99.90
12130;DHT22;6128;59.340;18.040;2023-11-22T03:23:20;-2.20;99.90
12130;DHT22;6128;59.340;18.040;2023-11-22T03:25:47;-2.20;99.90
12130;DHT22;6128;59.340;18.040;2023-11-22T03:28:14;-2.20;99.90
12130;DHT22;6128;59.340;18.040;2023-11-22T03:30:42;-2.20;99.90
12130;DHT22;6128;59.340;18.040;2023-11-22T03:33:10;-2.20;99.90
12130;DHT22;6128;59.340;18.040;2023-11-22T03:35:37;-2.30;99.90
12130;DHT22;6128;59.340;18.040;2023-11-22T03:38:04;-2.30;99.90
12130;DHT22;6128;59.340;18.040;2023-11-22T03:40:31;-2.30;99.90
12130;DHT22;6128;59.340;18.040;2023-11-22T03:42:58;-2.30;99.90
12130;DHT22;6128;59.340;18.040;2023-11-22T03:45:25;-2.30;99.90
12130;DHT22;6128;59.340;18.040;2023-11-22T03:47:52;-2.30;99.90
12130;DHT22;6128;59.340;18.040;2023-11-22T03:50:20;-2.30;99.90
12130;DHT22;6128;59.340;18.040;2023-11-22T03:52:47;-2.30;99.90
12130;DHT22;6128;59.340;18.040;2023-11-22T03:55:15;-2.30;99.90
12130;DHT22;6128;59.340;18.040;2023-11-22T03:57:42;-2.30;99.90
12130;DHT22;6128;59.340;18.040;2023-11-22T04:00:10;-2.20;99.90
12130;DHT22;6128;59.340;18.040;2023-11-22T04:02:38;-2.10;99.90
12130;DHT22;6128;59.340;18.040;2023-11-22T04:05:06;-2.10;99.90
12130;DHT22;6128;59.340;18.040;2023-11-22T04:07:35;-2.10;99.90
12130;DHT22;6128;59.340;18.040;2023-11-22T04:10:04;-2.10;99.90
12130;DHT22;6128;59.340;18.040;2023-11-22T04:12:31;-2.00;99.90
12130;DHT22;6128;59.340;18.040;2023-11-22T04:14:59;-2.00;99.90
12130;DHT22;6128;59.340;18.040;2023-11-22T04:17:26;-2.00;99.90
12130;DHT22;6128;59.340;18.040;2023-11-22T04:19:53;-2.00;99.90
12130;DHT22;6128;59.340;18.040;2023-11-22T04:22:20;-2.00;99.90
12130;DHT22;6128;59.340;18.040;2023-11-22T04:24:48;-2.00;99.90
12130;DHT22;6128;59.340;18.040;2023-11-22T04:27:15;-1.90;99.90
12130;DHT22;6128;59.340;18.040;2023-11-22T04:29:42;-2.00;99.90
12130;DHT22;6128;59.340;18.040;2023-11-22T04:32:09;-2.00;99.90
12130;DHT22;6128;59.340;18.040;2023-11-22T04:34:36;-1.90;99.90
12130;DHT22;6128;59.340;18.040;2023-11-22T04:37:03;-1.90;99.90
12130;DHT22;6128;59.340;18.040;2023-11-22T04:39:31;-1.90;99.90
12130;DHT22;6128;59.340;18.040;2023-11-22T04:41:59;-1.90;99.90
12130;DHT22;6128;59.340;18.040;2023-11-22T04:44:28;-1.90;99.90
12130;DHT22;6128;59.340;18.040;2023-11-22T04:46:55;-1.90;99.90
12130;DHT22;6128;59.340;18.040;2023-11-22T04:49:22;-1.90;99.90
12130;DHT22;6128;59.340;18.040;2023-11-22T04:51:49;-1.90;99.90
12130;DHT22;6128;59.340;18.040;2023-11-22T04:54:16;-1.90;99.90
12130;DHT22;6128;59.340;18.040;2023-11-22T04:56:43;-1.90;99.90
12130;DHT22;6128;59.340;18.040;2023-11-22T04:59:11;-1.90;99.90
12130;DHT22;6128;59.340;18.040;2023-11-22T05:01:38;-1.90;99.90
12130;DHT22;6128;59.340;18.040;2023-11-22T05:04:06;-2.00;99.90
12130;DHT22;6128;59.340;18.040;2023-11-22T05:06:33;-2.00;99.90
12130;DHT22;6128;59.340;18.040;2023-11-22T05:09:00;-2.00;99.90
12130;DHT22;6128;59.340;18.040;2023-11-22T05:11:26;-2.10;99.90
12130;DHT22;6128;59.340;18.040;2023-11-22T05:13:53;-2.10;99.90
12130;DHT22;6128;59.340;18.040;2023-11-22T05:16:22;-2.10;99.90
12130;DHT22;6128;59.340;18.040;2023-11-22T05:18:50;-2.20;99.90
12130;DHT22;6128;59.340;18.040;2023-11-22T05:21:17;-2.10;99.90
12130;DHT22;6128;59.340;18.040;2023-11-22T05:23:44;-2.10;99.90
12130;DHT22;6128;59.340;18.040;2023-11-22T05:26:11;-2.10;99.90
12130;DHT22;6128;59.340;18.040;2023-11-22T05:28:38;-2.10;99.90
12130;DHT22;6128;59.340;18.040;2023-11-22T05:31:05;-2.10;99.90
12130;DHT22;6128;59.340;18.040;2023-11-22T05:33:33;-2.10;99.90
12130;DHT22;6128;59.340;18.040;2023-11-22T05:36:00;-2.20;99.90
12130;DHT22;6128;59.340;18.040;2023-11-22T05:38:27;-2.20;99.90
12130;DHT22;6128;59.340;18.040;2023-11-22T05:40:54;-2.10;99.90
12130;DHT22;6128;59.340;18.040;2023-11-22T05:43:22;-2.10;99.90
12130;DHT22;6128;59.340;18.040;2023-11-22T05:45:52;-2.20;99.90
12130;DHT22;6128;59.340;18.040;2023-11-22T05:48:19;-2.20;99.90
12130;DHT22;6128;59.340;18.040;2023-11-22T05:50:48;-2.20;99.90
12130;DHT22;6128;59.340;18.040;2023-11-22T05:53:15;-2.20;99.90
12130;DHT22;6128;59.340;18.040;2023-11-22T05:55:45;-2.20;99.90
12130;DHT22;6128;59.340;18.040;2023-11-22T05:58:13;-2.20;99.90
12130;DHT22;6128;59.340;18.040;2023-11-22T06:00:42;-2.20;99.90
12130;DHT22;6128;59.340;18.040;2023-11-22T06:03:09;-2.30;99.90
12130;DHT22;6128;59.340;18.040;2023-11-22T06:05:36;-2.30;99.90
12130;DHT22;6128;59.340;18.040;2023-11-22T06:08:05;-2.40;99.90
12130;DHT22;6128;59.340;18.040;2023-11-22T06:10:32;-2.40;99.90
12130;DHT22;6128;59.340;18.040;2023-11-22T06:13:00;-2.40;99.90
12130;DHT22;6128;59.340;18.040;2023-11-22T06:15:27;-2.40;99.90
12130;DHT22;6128;59.340;18.040;2023-11-22T06:17:54;-2.50;99.90
12130;DHT22;6128;59.340;18.040;2023-11-22T06:20:21;-2.60;99.90
12130;DHT22;6128;59.340;18.040;2023-11-22T06:22:49;-2.60;99.90
12130;DHT22;6128;59.340;18.040;2023-11-22T06:25:18;-2.60;99.90
12130;DHT22;6128;59.340;18.040;2023-11-22T06:27:45;-2.60;99.90
12130;DHT22;6128;59.340;18.040;2023-11-22T06:30:12;-2.60;99.90
12130;DHT22;6128;59.340;18.040;2023-11-22T06:32:40;-2.50;99.90
12130;DHT22;6128;59.340;18.040;2023-11-22T06:35:09;-2.50;99.90
12130;DHT22;6128;59.340;18.040;2023-11-22T06:37:39;-2.50;99.90
12130;DHT22;6128;59.340;18.040;2023-11-22T06:40:07;-2.60;99.90
12130;DHT22;6128;59.340;18.040;2023-11-22T06:42:36;-2.70;99.90
12130;DHT22;6128;59.340;18.040;2023-11-22T06:45:04;-2.70;99.90
12130;DHT22;6128;59.340;18.040;2023-11-22T06:47:32;-2.90;99.90
12130;DHT22;6128;59.340;18.040;2023-11-22T06:49:59;-2.90;99.90
12130;DHT22;6128;59.340;18.040;2023-11-22T06:52:26;-2.90;99.90
12130;DHT22;6128;59.340;18.040;2023-11-22T06:54:55;-3.00;99.90
12130;DHT22;6128;59.340;18.040;2023-11-22T06:57:22;-3.00;99.90
12130;DHT22;6128;59.340;18.040;2023-11-22T06:59:56;-3.00;99.90
12130;DHT22;6128;59.340;18.040;2023-11-22T07:02:24;-3.00;99.90
12130;DHT22;6128;59.340;18.040;2023-11-22T07:04:51;-2.90;99.90
12130;DHT22;6128;59.340;18.040;2023-11-22T07:07:18;-2.90;99.90
12130;DHT22;6128;59.340;18.040;2023-11-22T07:09:45;-2.90;99.90
12130;DHT22;6128;59.340;18.040;2023-11-22T07:12:13;-2.80;99.90
12130;DHT22;6128;59.340;18.040;2023-11-22T07:14:41;-2.80;99.90
12130;DHT22;6128;59.340;18.040;2023-11-22T07:17:10;-2.80;99.90
12130;DHT22;6128;59.340;18.040;2023-11-22T07:19:38;-2.80;99.90
12130;DHT22;6128;59.340;18.040;2023-11-22T07:22:12;-2.80;99.90
12130;DHT22;6128;59.340;18.040;2023-11-22T07:24:43;-2.70;99.90
12130;DHT22;6128;59.340;18.040;2023-11-22T07:27:10;-2.70;99.90
12130;DHT22;6128;59.340;18.040;2023-11-22T07:29:39;-2.70;99.90
12130;DHT22;6128;59.340;18.040;2023-11-22T07:32:06;-2.70;99.90
12130;DHT22;6128;59.340;18.040;2023-11-22T07:34:36;-2.60;99.90
12130;DHT22;6128;59.340;18.040;2023-11-22T07:37:04;-2.60;99.90
12130;DHT22;6128;59.340;18.040;2023-11-22T07:39:33;-2.50;99.90
12130;DHT22;6128;59.340;18.040;2023-11-22T07:42:01;-2.50;99.90
12130;DHT22;6128;59.340;18.040;2023-11-22T07:44:28;-2.40;99.90
12130;DHT22;6128;59.340;18.040;2023-11-22T07:46:58;-2.40;99.90
12130;DHT22;6128;59.340;18.040;2023-11-22T07:49:26;-2.30;99.90
12130;DHT22;6128;59.340;18.040;2023-11-22T07:51:54;-2.30;99.90
12130;DHT22;6128;59.340;18.040;2023-11-22T07:54:22;-2.20;99.90
12130;DHT22;6128;59.340;18.040;2023-11-22T07:56:49;-2.20;99.90
12130;DHT22;6128;59.340;18.040;2023-11-22T07:59:18;-2.10;99.90
12130;DHT22;6128;59.340;18.040;2023-11-22T08:01:45;-2.10;99.90
12130;DHT22;6128;59.340;18.040;2023-11-22T08:04:15;-2.00;99.90
12130;DHT22;6128;59.340;18.040;2023-11-22T08:06:50;-2.00;99.90
12130;DHT22;6128;59.340;18.040;2023-11-22T08:09:29;-2.00;99.90
12130;DHT22;6128;59.340;18.040;2023-11-22T08:11:58;-1.90;99.90
12130;DHT22;6128;59.340;18.040;2023-11-22T08:14:26;-1.80;99.90
12130;DHT22;6128;59.340;18.040;2023-11-22T08:16:53;-1.80;99.90
12130;DHT22;6128;59.340;18.040;2023-11-22T08:19:21;-1.70;99.90
12130;DHT22;6128;59.340;18.040;2023-11-22T08:21:49;-1.70;99.90
12130;DHT22;6128;59.340;18.040;2023-11-22T08:24:17;-1.60;99.90
12130;DHT22;6128;59.340;18.040;2023-11-22T08:26:46;-1.50;99.90
12130;DHT22;6128;59.340;18.040;2023-11-22T08:29:13;-1.60;99.90
12130;DHT22;6128;59.340;18.040;2023-11-22T08:31:41;-1.50;99.90
12130;DHT22;6128;59.340;18.040;2023-11-22T08:34:08;-1.50;99.90
12130;DHT22;6128;59.340;18.040;2023-11-22T08:36:37;-1.40;99.90
12130;DHT22;6128;59.340;18.040;2023-11-22T08:39:04;-1.40;99.90
12130;DHT22;6128;59.340;18.040;2023-11-22T08:41:31;-1.40;99.90
12130;DHT22;6128;59.340;18.040;2023-11-22T08:43:59;-1.30;99.90
12130;DHT22;6128;59.340;18.040;2023-11-22T08:46:27;-1.30;99.90
12130;DHT22;6128;59.340;18.040;2023-11-22T08:48:54;-1.20;99.90
12130;DHT22;6128;59.340;18.040;2023-11-22T08:51:22;-1.20;99.90
12130;DHT22;6128;59.340;18.040;2023-11-22T08:53:49;-1.20;99.90
12130;DHT22;6128;59.340;18.040;2023-11-22T08:56:16;-1.20;99.90
12130;DHT22;6128;59.340;18.040;2023-11-22T08:58:43;-1.20;99.90
12130;DHT22;6128;59.340;18.040;2023-11-22T09:01:12;-1.10;99.90
12130;DHT22;6128;59.340;18.040;2023-11-22T09:03:40;-1.10;99.90
12130;DHT22;6128;59.340;18.040;2023-11-22T09:06:07;-1.00;99.90
12130;DHT22;6128;59.340;18.040;2023-11-22T09:08:35;-1.00;99.90
12130;DHT22;6128;59.340;18.040;2023-11-22T09:11:02;-0.90;99.90
12130;DHT22;6128;59.340;18.040;2023-11-22T09:13:32;-0.90;99.90
12130;DHT22;6128;59.340;18.040;2023-11-22T09:16:00;-0.90;99.90
12130;DHT22;6128;59.340;18.040;2023-11-22T09:18:32;-0.80;99.90
12130;DHT22;6128;59.340;18.040;2023-11-22T09:20:59;-0.80;99.90
12130;DHT22;6128;59.340;18.040;2023-11-22T09:23:26;-0.70;99.90
12130;DHT22;6128;59.340;18.040;2023-11-22T09:25:53;-0.60;99.90
12130;DHT22;6128;59.340;18.040;2023-11-22T09:28:20;-0.60;99.90
12130;DHT22;6128;59.340;18.040;2023-11-22T09:30:47;-0.50;99.90
12130;DHT22;6128;59.340;18.040;2023-11-22T09:33:15;-0.50;99.90
12130;DHT22;6128;59.340;18.040;2023-11-22T09:35:45;-0.50;99.90
12130;DHT22;6128;59.340;18.040;2023-11-22T09:38:13;-0.50;99.90
12130;DHT22;6128;59.340;18.040;2023-11-22T09:40:42;-0.50;99.90
12130;DHT22;6128;59.340;18.040;2023-11-22T09:43:11;-0.40;99.90
12130;DHT22;6128;59.340;18.040;2023-11-22T09:45:41;-0.50;99.90
12130;DHT22;6128;59.340;18.040;2023-11-22T09:48:14;-0.50;99.90
12130;DHT22;6128;59.340;18.040;2023-11-22T09:50:50;-0.50;99.90
12130;DHT22;6128;59.340;18.040;2023-11-22T09:53:27;-0.40;99.90
12130;DHT22;6128;59.340;18.040;2023-11-22T09:55:58;-0.50;99.90
12130;DHT22;6128;59.340;18.040;2023-11-22T09:58:27;-0.40;99.90
12130;DHT22;6128;59.340;18.040;2023-11-22T10:00:56;-0.40;99.90
12130;DHT22;6128;59.340;18.040;2023-11-22T10:03:25;-0.40;99.90
12130;DHT22;6128;59.340;18.040;2023-11-22T10:05:55;-0.40;99.90
12130;DHT22;6128;59.340;18.040;2023-11-22T10:08:23;-0.40;99.90
12130;DHT22;6128;59.340;18.040;2023-11-22T10:10:50;-0.30;99.90
12130;DHT22;6128;59.340;18.040;2023-11-22T10:13:19;-0.30;99.90
12130;DHT22;6128;59.340;18.040;2023-11-22T10:15:47;-0.30;99.90
12130;DHT22;6128;59.340;18.040;2023-11-22T10:18:15;-0.30;99.90
12130;DHT22;6128;59.340;18.040;2023-11-22T10:20:44;-0.30;99.90
12130;DHT22;6128;59.340;18.040;2023-11-22T10:23:14;-0.20;99.90
12130;DHT22;6128;59.340;18.040;2023-11-22T10:25:45;-0.20;99.90
12130;DHT22;6128;59.340;18.040;2023-11-22T10:28:13;-0.30;99.90
12130;DHT22;6128;59.340;18.040;2023-11-22T10:30:40;-0.30;99.90
12130;DHT22;6128;59.340;18.040;2023-11-22T10:33:09;-0.30;99.90
12130;DHT22;6128;59.340;18.040;2023-11-22T10:35:39;-0.30;99.90
12130;DHT22;6128;59.340;18.040;2023-11-22T10:38:08;-0.30;99.90
12130;DHT22;6128;59.340;18.040;2023-11-22T10:40:37;-0.30;99.90
12130;DHT22;6128;59.340;18.040;2023-11-22T10:43:05;-0.30;99.90
12130;DHT22;6128;59.340;18.040;2023-11-22T10:45:34;-0.30;99.90
12130;DHT22;6128;59.340;18.040;2023-11-22T10:48:03;-0.30;99.90
12130;DHT22;6128;59.340;18.040;2023-11-22T10:50:30;-0.30;99.90
12130;DHT22;6128;59.340;18.040;2023-11-22T10:52:58;-0.30;99.90
12130;DHT22;6128;59.340;18.040;2023-11-22T10:55:27;-0.20;99.90
12130;DHT22;6128;59.340;18.040;2023-11-22T10:58:02;-0.20;99.90
12130;DHT22;6128;59.340;18.040;2023-11-22T11:00:31;-0.20;99.90
12130;DHT22;6128;59.340;18.040;2023-11-22T11:03:00;-0.10;99.90
12130;DHT22;6128;59.340;18.040;2023-11-22T11:05:31;-0.10;99.90
12130;DHT22;6128;59.340;18.040;2023-11-22T11:08:02;-0.10;99.90
12130;DHT22;6128;59.340;18.040;2023-11-22T11:10:38;-0.10;99.90
12130;DHT22;6128;59.340;18.040;2023-11-22T11:13:08;-0.10;99.90
12130;DHT22;6128;59.340;18.040;2023-11-22T11:15:36;-0.10;99.90
12130;DHT22;6128;59.340;18.040;2023-11-22T11:18:04;-0.10;99.90
12130;DHT22;6128;59.340;18.040;2023-11-22T11:20:32;0.00;99.90
12130;DHT22;6128;59.340;18.040;2023-11-22T11:23:02;0.00;99.90
12130;DHT22;6128;59.340;18.040;2023-11-22T11:25:32;0.00;99.90
12130;DHT22;6128;59.340;18.040;2023-11-22T11:28:00;0.00;99.90
12130;DHT22;6128;59.340;18.040;2023-11-22T11:30:45;0.00;99.90
12130;DHT22;6128;59.340;18.040;2023-11-22T11:33:14;0.10;99.90
12130;DHT22;6128;59.340;18.040;2023-11-22T11:35:44;0.10;99.90
12130;DHT22;6128;59.340;18.040;2023-11-22T11:38:15;0.10;99.90
12130;DHT22;6128;59.340;18.040;2023-11-22T11:40:45;0.10;99.90
12130;DHT22;6128;59.340;18.040;2023-11-22T11:43:13;0.20;99.90
12130;DHT22;6128;59.340;18.040;2023-11-22T11:45:41;0.30;99.90
12130;DHT22;6128;59.340;18.040;2023-11-22T11:48:14;0.30;99.90
12130;DHT22;6128;59.340;18.040;2023-11-22T11:50:43;0.40;99.90
12130;DHT22;6128;59.340;18.040;2023-11-22T11:53:10;0.40;99.90
12130;DHT22;6128;59.340;18.040;2023-11-22T11:55:39;0.40;99.90
12130;DHT22;6128;59.340;18.040;2023-11-22T11:58:10;0.50;99.90
12130;DHT22;6128;59.340;18.040;2023-11-22T12:00:37;0.50;99.90
12130;DHT22;6128;59.340;18.040;2023-11-22T12:03:07;0.50;99.90
12130;DHT22;6128;59.340;18.040;2023-11-22T12:05:42;0.50;99.90
12130;DHT22;6128;59.340;18.040;2023-11-22T12:08:11;0.50;99.90
12130;DHT22;6128;59.340;18.040;2023-11-22T12:10:41;0.60;99.90
12130;DHT22;6128;59.340;18.040;2023-11-22T12:13:17;0.60;99.90
12130;DHT22;6128;59.340;18.040;2023-11-22T12:15:48;0.70;99.90
12130;DHT22;6128;59.340;18.040;2023-11-22T12:18:15;0.80;99.90
12130;DHT22;6128;59.340;18.040;2023-11-22T12:20:56;0.80;99.90
12130;DHT22;6128;59.340;18.040;2023-11-22T12:23:24;0.80;99.90
12130;DHT22;6128;59.340;18.040;2023-11-22T12:25:56;0.90;99.90
12130;DHT22;6128;59.340;18.040;2023-11-22T12:28:26;0.90;99.90
12130;DHT22;6128;59.340;18.040;2023-11-22T12:31:07;0.90;99.90
12130;DHT22;6128;59.340;18.040;2023-11-22T12:33:35;0.90;99.90
12130;DHT22;6128;59.340;18.040;2023-11-22T12:36:05;1.00;99.90
12130;DHT22;6128;59.340;18.040;2023-11-22T12:38:34;1.00;99.90
12130;DHT22;6128;59.340;18.040;2023-11-22T12:41:03;1.10;99.90
12130;DHT22;6128;59.340;18.040;2023-11-22T12:43:42;1.10;99.90
12130;DHT22;6128;59.340;18.040;2023-11-22T12:46:24;1.20;99.90
12130;DHT22;6128;59.340;18.040;2023-11-22T12:48:56;1.30;99.90
12130;DHT22;6128;59.340;18.040;2023-11-22T12:51:33;1.30;99.90
12130;DHT22;6128;59.340;18.040;2023-11-22T12:54:01;1.40;99.90
12130;DHT22;6128;59.340;18.040;2023-11-22T12:56:28;1.40;99.90
12130;DHT22;6128;59.340;18.040;2023-11-22T12:58:55;1.40;99.90
12130;DHT22;6128;59.340;18.040;2023-11-22T13:01:23;1.40;99.90
12130;DHT22;6128;59.340;18.040;2023-11-22T13:03:50;1.50;99.90
12130;DHT22;6128;59.340;18.040;2023-11-22T13:06:17;1.50;99.90
12130;DHT22;6128;59.340;18.040;2023-11-22T13:08:46;1.50;99.90
12130;DHT22;6128;59.340;18.040;2023-11-22T13:11:13;1.50;99.90
12130;DHT22;6128;59.340;18.040;2023-11-22T13:13:40;1.40;99.90
12130;DHT22;6128;59.340;18.040;2023-11-22T13:16:07;1.40;99.90
12130;DHT22;6128;59.340;18.040;2023-11-22T13:18:35;1.40;99.90
12130;DHT22;6128;59.340;18.040;2023-11-22T13:21:03;1.30;99.90
12130;DHT22;6128;59.340;18.040;2023-11-22T13:23:30;1.30;99.90
12130;DHT22;6128;59.340;18.040;2023-11-22T13:26:01;1.30;99.90
12130;DHT22;6128;59.340;18.040;2023-11-22T13:28:31;1.30;99.90
12130;DHT22;6128;59.340;18.040;2023-11-22T13:30:58;1.30;99.90
12130;DHT22;6128;59.340;18.040;2023-11-22T13:33:26;1.30;99.90
12130;DHT22;6128;59.340;18.040;2023-11-22T13:35:54;1.30;99.90
12130;DHT22;6128;59.340;18.040;2023-11-22T13:38:21;1.30;99.90
12130;DHT22;6128;59.340;18.040;2023-11-22T13:40:49;1.30;99.90
12130;DHT22;6128;59.340;18.040;2023-11-22T13:43:18;1.40;99.90
12130;DHT22;6128;59.340;18.040;2023-11-22T13:45:45;1.40;99.90
12130;DHT22;6128;59.340;18.040;2023-11-22T13:48:13;1.40;99.90
12130;DHT22;6128;59.340;18.040;2023-11-22T13:50:43;1.40;99.90
12130;DHT22;6128;59.340;18.040;2023-11-22T13:53:14;1.40;99.90
12130;DHT22;6128;59.340;18.040;2023-11-22T13:55:55;1.40;99.90
12130;DHT22;6128;59.340;18.040;2023-11-22T13:58:25;1.40;99.90
12130;DHT22;6128;59.340;18.040;2023-11-22T14:00:52;1.40;99.90
12130;DHT22;6128;59.340;18.040;2023-11-22T14:03:20;1.40;99.90
12130;DHT22;6128;59.340;18.040;2023-11-22T14:05:47;1.40;99.90
12130;DHT22;6128;59.340;18.040;2023-11-22T14:08:14;1.30;99.90
12130;DHT22;6128;59.340;18.040;2023-11-22T14:10:41;1.40;99.90
12130;DHT22;6128;59.340;18.040;2023-11-22T14:13:11;1.30;99.90
12130;DHT22;6128;59.340;18.040;2023-11-22T14:15:39;1.30;99.90
12130;DHT22;6128;59.340;18.040;2023-11-22T14:18:07;1.30;99.90
12130;DHT22;6128;59.340;18.040;2023-11-22T14:20:34;1.20;99.90
12130;DHT22;6128;59.340;18.040;2023-11-22T14:23:01;1.20;99.90
12130;DHT22;6128;59.340;18.040;2023-11-22T14:25:28;1.20;99.90
12130;DHT22;6128;59.340;18.040;2023-11-22T14:27:57;1.20;99.90
12130;DHT22;6128;59.340;18.040;2023-11-22T14:30:25;1.20;99.90
12130;DHT22;6128;59.340;18.040;2023-11-22T14:32:56;1.20;99.90
12130;DHT22;6128;59.340;18.040;2023-11-22T14:35:25;1.20;99.90
12130;DHT22;6128;59.340;18.040;2023-11-22T14:37:53;1.10;99.90
12130;DHT22;6128;59.340;18.040;2023-11-22T14:40:21;1.20;99.90
12130;DHT22;6128;59.340;18.040;2023-11-22T14:42:49;1.20;99.90
12130;DHT22;6128;59.340;18.040;2023-11-22T14:45:17;1.20;99.90
12130;DHT22;6128;59.340;18.040;2023-11-22T14:47:45;1.20;99.90
12130;DHT22;6128;59.340;18.040;2023-11-22T14:50:14;1.20;99.90
12130;DHT22;6128;59.340;18.040;2023-11-22T14:52:41;1.30;99.90
12130;DHT22;6128;59.340;18.040;2023-11-22T14:55:10;1.30;99.90
12130;DHT22;6128;59.340;18.040;2023-11-22T14:57:38;1.30;99.90
12130;DHT22;6128;59.340;18.040;2023-11-22T15:00:06;1.30;99.90
12130;DHT22;6128;59.340;18.040;2023-11-22T15:02:35;1.40;99.90
12130;DHT22;6128;59.340;18.040;2023-11-22T15:05:03;1.40;99.90
12130;DHT22;6128;59.340;18.040;2023-11-22T15:07:36;1.40;99.90
12130;DHT22;6128;59.340;18.040;2023-11-22T15:10:04;1.50;99.90
12130;DHT22;6128;59.340;18.040;2023-11-22T15:12:31;1.50;99.90
12130;DHT22;6128;59.340;18.040;2023-11-22T15:14:59;1.60;99.90
12130;DHT22;6128;59.340;18.040;2023-11-22T15:17:26;1.60;99.90
12130;DHT22;6128;59.340;18.040;2023-11-22T15:19:53;1.70;99.90
12130;DHT22;6128;59.340;18.040;2023-11-22T15:22:21;1.70;99.90
12130;DHT22;6128;59.340;18.040;2023-11-22T15:24:49;1.70;99.90
12130;DHT22;6128;59.340;18.040;2023-11-22T15:27:16;1.80;99.90
12130;DHT22;6128;59.340;18.040;2023-11-22T15:29:43;1.80;99.90
12130;DHT22;6128;59.340;18.040;2023-11-22T15:32:11;1.80;99.90
12130;DHT22;6128;59.340;18.040;2023-11-22T15:34:39;1.80;99.90
12130;DHT22;6128;59.340;18.040;2023-11-22T15:37:06;1.80;99.90
12130;DHT22;6128;59.340;18.040;2023-11-22T15:39:36;1.80;99.90
12130;DHT22;6128;59.340;18.040;2023-11-22T15:42:05;1.80;99.90